Time;durP1;ratioP1;P1;durP2;ratioP2;P2;SDS_P1;SDS_P2;PMS_P1;PMS_P2;Temp;Humidity;BMP_temperature;BMP_pressure;BME280_temperature;BME280_humidity;BME280_pressure;Samples;Min_cycle;Max_cycle;Signal;HPM_P1;HPM_P2
2022/03/28 00:01:13;;;;;;;5.63;1.40;;;23.60;78.60;;;;;;4225251;27;20041;-62
2022/03/28 00:03:36;;;;;;;2.65;1.20;;;23.60;78.50;;;;;;4230490;27;20177;-63
2022/03/28 00:05:59;;;;;;;2.10;1.20;;;23.60;78.50;;;;;;4226456;27;20125;-64
2022/03/28 00:08:22;;;;;;;2.85;1.52;;;23.60;78.50;;;;;;4227728;27;20282;-63
2022/03/28 00:10:44;;;;;;;3.85;1.50;;;23.60;78.40;;;;;;4239428;27;20707;-70
2022/03/28 00:13:07;;;;;;;4.30;1.73;;;23.60;78.60;;;;;;4231625;27;20784;-68
2022/03/28 00:15:30;;;;;;;7.10;1.65;;;23.70;78.50;;;;;;4227412;27;20042;-63
2022/03/28 00:17:53;;;;;;;5.32;1.40;;;23.70;78.40;;;;;;4238144;27;20045;-62
2022/03/28 00:20:18;;;;;;;6.13;1.40;;;23.70;78.30;;;;;;4235455;27;20034;-70
2022/03/28 00:22:42;;;;;;;4.97;2.00;;;23.80;78.30;;;;;;4235260;27;20127;-66
2022/03/28 00:25:06;;;;;;;3.80;1.60;;;23.80;78.30;;;;;;4244756;27;20038;-65
2022/03/28 00:27:29;;;;;;;7.18;1.58;;;23.80;78.20;;;;;;4234998;27;20037;-67
2022/03/28 00:29:51;;;;;;;3.65;1.48;;;23.80;78.20;;;;;;4228748;27;20500;-67
2022/03/28 00:32:14;;;;;;;4.63;1.60;;;23.80;78.20;;;;;;4227592;27;20035;-66
2022/03/28 00:38:11;;;;;;;2.58;1.45;;;23.90;78.20;;;;;;4243623;27;20825;-69
2022/03/28 00:40:35;;;;;;;2.33;1.55;;;23.90;78.20;;;;;;4225913;27;20750;-67
2022/03/28 00:42:57;;;;;;;4.40;1.40;;;23.90;78.10;;;;;;4213155;27;20160;-66
2022/03/28 00:45:20;;;;;;;3.67;1.30;;;23.90;78.10;;;;;;4217093;27;20068;-72
2022/03/28 00:47:43;;;;;;;4.10;1.35;;;24.00;78.10;;;;;;4203143;27;20070;-70
2022/03/28 00:50:06;;;;;;;4.85;1.33;;;24.00;78.10;;;;;;4195358;27;20039;-70
2022/03/28 00:52:29;;;;;;;1.80;1.20;;;24.00;78.10;;;;;;4218277;27;21482;-65
2022/03/28 00:54:51;;;;;;;2.42;1.60;;;24.00;78.10;;;;;;4219833;27;20978;-70
2022/03/28 00:57:14;;;;;;;1.52;1.05;;;24.00;78.10;;;;;;4214294;27;20038;-71
2022/03/28 00:59:37;;;;;;;2.13;1.33;;;24.10;78.20;;;;;;4219088;27;21569;-71
2022/03/28 01:02:02;;;;;;;2.25;1.20;;;24.10;78.20;;;;;;4215633;27;20042;-72
2022/03/28 01:04:25;;;;;;;4.85;1.50;;;24.10;78.20;;;;;;4204917;27;20842;-67
2022/03/28 01:06:47;;;;;;;1.63;1.10;;;24.10;78.10;;;;;;4211677;27;20275;-68
2022/03/28 01:09:10;;;;;;;4.75;1.52;;;24.20;78.20;;;;;;4205279;27;20487;-66
2022/03/28 01:11:34;;;;;;;5.43;1.50;;;24.20;78.20;;;;;;4202491;27;20142;-69
2022/03/28 01:13:58;;;;;;;3.15;1.00;;;24.20;78.20;;;;;;4212927;27;20042;-68
2022/03/28 01:16:20;;;;;;;3.85;1.38;;;24.20;78.20;;;;;;4205592;27;20676;-70
2022/03/28 01:18:49;;;;;;;2.28;1.33;;;24.30;78.20;;;;;;4205728;27;20886;-73
2022/03/28 01:21:12;;;;;;;5.97;1.33;;;24.30;78.20;;;;;;4208881;27;20078;-69
2022/03/28 01:23:36;;;;;;;3.03;1.30;;;24.30;78.20;;;;;;4206500;27;20075;-67
2022/03/28 01:25:58;;;;;;;1.42;1.02;;;24.30;78.20;;;;;;4211025;27;21063;-68
2022/03/28 01:28:23;;;;;;;3.95;1.45;;;24.40;78.10;;;;;;4209717;27;20686;-68
2022/03/28 01:30:46;;;;;;;1.60;1.05;;;24.40;78.00;;;;;;4204491;27;20046;-65
2022/03/28 01:33:09;;;;;;;1.50;1.10;;;24.40;78.10;;;;;;4213300;27;20570;-64
2022/03/28 01:35:35;;;;;;;3.78;1.23;;;24.40;78.10;;;;;;4208679;27;20055;-65
2022/03/28 01:37:59;;;;;;;2.33;1.40;;;24.40;78.10;;;;;;4204365;27;20042;-68
2022/03/28 01:40:22;;;;;;;3.28;1.30;;;24.40;78.20;;;;;;4212058;27;20466;-71
2022/03/28 01:42:45;;;;;;;3.23;1.30;;;24.40;78.30;;;;;;4203009;27;20045;-69
2022/03/28 01:45:08;;;;;;;4.43;1.20;;;24.40;78.30;;;;;;4204649;27;20278;-68
2022/03/28 01:47:31;;;;;;;2.63;1.13;;;24.50;78.40;;;;;;4209353;27;20031;-71
2022/03/28 01:49:53;;;;;;;2.47;1.20;;;24.40;78.40;;;;;;4200595;27;20047;-63
2022/03/28 01:52:16;;;;;;;4.10;1.20;;;24.50;78.50;;;;;;4206884;27;20338;-69
2022/03/28 01:54:38;;;;;;;3.45;1.27;;;24.50;78.90;;;;;;4212637;27;20142;-68
2022/03/28 01:57:01;;;;;;;11.13;1.88;;;24.50;78.80;;;;;;4206612;27;20039;-63
2022/03/28 01:59:23;;;;;;;7.13;1.58;;;24.50;78.80;;;;;;4206858;27;20031;-64
2022/03/28 02:01:46;;;;;;;10.13;1.45;;;24.50;78.80;;;;;;4215175;27;20837;-71
2022/03/28 02:04:08;;;;;;;6.82;1.67;;;24.60;78.70;;;;;;4223242;27;20466;-68
2022/03/28 02:06:33;;;;;;;11.80;1.50;;;24.60;78.60;;;;;;4220969;27;20042;-71
2022/03/28 02:08:55;;;;;;;5.03;1.63;;;24.60;78.60;;;;;;4231910;27;20581;-71
2022/03/28 02:11:19;;;;;;;3.03;1.60;;;24.60;78.70;;;;;;4227187;27;20920;-66
2022/03/28 02:13:41;;;;;;;6.27;1.50;;;24.60;78.30;;;;;;4218895;27;20647;-67
2022/03/28 02:16:05;;;;;;;3.40;1.42;;;24.70;78.50;;;;;;4222337;27;20286;-68
2022/03/28 02:18:30;;;;;;;3.75;1.40;;;24.70;78.70;;;;;;4214971;27;20042;-65
2022/03/28 02:20:53;;;;;;;5.90;1.77;;;24.70;78.70;;;;;;4224083;27;20979;-70
2022/03/28 02:23:16;;;;;;;3.40;1.55;;;24.80;78.50;;;;;;4222464;27;21053;-72
2022/03/28 02:25:39;;;;;;;8.20;1.33;;;24.80;78.40;;;;;;4216762;27;20429;-68
2022/03/28 02:28:01;;;;;;;3.80;1.60;;;24.80;78.40;;;;;;4220993;27;20448;-72
2022/03/28 02:30:24;;;;;;;2.90;1.20;;;24.80;78.20;;;;;;4225201;27;20140;-71
2022/03/28 02:32:46;;;;;;;1.50;1.15;;;24.90;78.20;;;;;;4201973;27;20480;-66
2022/03/28 02:35:10;;;;;;;2.13;1.30;;;24.90;78.10;;;;;;4219485;27;22058;-66
2022/03/28 02:37:32;;;;;;;3.28;1.45;;;24.90;78.00;;;;;;4226630;27;20073;-73
2022/03/28 02:39:55;;;;;;;1.88;1.30;;;25.00;78.00;;;;;;4217206;27;20034;-71
2022/03/28 02:42:22;;;;;;;3.17;1.55;;;25.00;78.00;;;;;;4217315;27;20078;-69
2022/03/28 02:44:44;;;;;;;5.57;1.33;;;25.00;77.90;;;;;;4206767;27;20918;-68
2022/03/28 02:47:07;;;;;;;1.60;1.25;;;25.10;77.90;;;;;;4199472;27;20508;-68
2022/03/28 02:49:30;;;;;;;3.40;1.48;;;25.10;77.80;;;;;;4218714;27;20160;-63
2022/03/28 02:51:52;;;;;;;2.22;1.17;;;25.10;77.60;;;;;;4221431;27;20030;-66
2022/03/28 02:54:15;;;;;;;6.07;2.05;;;25.10;77.50;;;;;;4215006;27;20526;-65
2022/03/28 02:56:37;;;;;;;4.57;1.50;;;25.20;77.70;;;;;;4219166;27;21075;-67
2022/03/28 02:59:00;;;;;;;4.85;1.30;;;25.20;77.70;;;;;;4225429;27;20034;-67
2022/03/28 03:01:23;;;;;;;6.68;1.70;;;25.20;77.70;;;;;;4217514;27;20099;-61
2022/03/28 03:03:45;;;;;;;6.53;1.75;;;25.20;77.80;;;;;;4221207;27;21429;-63
2022/03/28 03:06:08;;;;;;;7.75;1.70;;;25.30;77.90;;;;;;4228190;27;20069;-65
2022/03/28 03:08:30;;;;;;;10.00;1.73;;;25.30;78.10;;;;;;4221420;27;20088;-62
2022/03/28 03:10:52;;;;;;;5.53;1.75;;;25.40;78.10;;;;;;4223444;27;20030;-66
2022/03/28 03:13:15;;;;;;;2.35;1.30;;;25.40;78.00;;;;;;4230460;27;20543;-62
2022/03/28 03:15:41;;;;;;;3.45;1.60;;;25.40;77.90;;;;;;4222899;27;20030;-61
2022/03/28 03:18:04;;;;;;;5.53;1.50;;;25.40;77.90;;;;;;4226489;27;20053;-63
2022/03/28 03:20:27;;;;;;;3.17;1.65;;;25.40;77.80;;;;;;4227340;27;20045;-66
2022/03/28 03:22:49;;;;;;;2.35;1.38;;;25.50;77.80;;;;;;4219472;27;20076;-61
2022/03/28 03:25:12;;;;;;;6.90;1.42;;;25.50;77.70;;;;;;4225800;27;20038;-64
2022/03/28 03:27:38;;;;;;;2.65;1.40;;;25.50;77.60;;;;;;4228272;27;20050;-62
2022/03/28 03:30:00;;;;;;;3.30;1.33;;;25.50;77.60;;;;;;4223669;27;20030;-64
2022/03/28 03:32:22;;;;;;;6.00;1.30;;;25.50;77.50;;;;;;4228854;27;20042;-63
2022/03/28 03:34:45;;;;;;;4.47;1.40;;;25.60;77.50;;;;;;4212418;27;20018;-64
2022/03/28 03:37:08;;;;;;;5.78;2.78;;;25.60;77.50;;;;;;4211774;27;20327;-66
2022/03/28 03:39:30;;;;;;;7.30;1.77;;;25.70;78.30;;;;;;4232369;27;20034;-67
2022/03/28 03:41:54;;;;;;;3.65;1.83;;;25.70;78.10;;;;;;4232539;27;20485;-69
2022/03/28 03:44:16;;;;;;;4.65;1.73;;;25.70;78.50;;;;;;4226101;27;20053;-71
2022/03/28 03:46:39;;;;;;;4.25;1.77;;;25.80;78.30;;;;;;4216217;27;21789;-69
2022/03/28 03:49:01;;;;;;;4.95;1.70;;;25.80;78.30;;;;;;4231996;27;20050;-69
2022/03/28 03:51:24;;;;;;;3.08;1.33;;;25.80;78.20;;;;;;4228184;27;20038;-70
2022/03/28 03:53:46;;;;;;;3.22;1.80;;;25.90;78.20;;;;;;4231274;27;20071;-69
2022/03/28 03:56:09;;;;;;;5.32;1.80;;;25.90;78.00;;;;;;4231307;27;20026;-72
2022/03/28 03:58:32;;;;;;;4.82;1.40;;;25.90;78.00;;;;;;4224794;27;20073;-71
2022/03/28 04:00:54;;;;;;;3.40;1.40;;;25.90;77.90;;;;;;4227077;27;20040;-69
2022/03/28 04:03:17;;;;;;;4.57;1.50;;;26.00;78.00;;;;;;4232840;27;20050;-68
2022/03/28 04:05:40;;;;;;;1.92;1.42;;;26.00;77.80;;;;;;4227757;27;20030;-71
2022/03/28 04:08:02;;;;;;;2.70;1.45;;;26.00;77.70;;;;;;4224325;27;20042;-72
2022/03/28 04:10:26;;;;;;;1.73;1.43;;;26.00;77.60;;;;;;4234914;27;20038;-70
2022/03/28 04:12:49;;;;;;;2.78;1.30;;;26.00;77.50;;;;;;4226884;27;20414;-71
2022/03/28 04:15:11;;;;;;;1.52;1.02;;;26.10;77.60;;;;;;4209324;27;21424;-68
2022/03/28 04:17:45;;;;;;;3.58;1.63;;;26.10;77.40;;;;;;4235264;27;20065;-72
2022/03/28 04:20:08;;;;;;;1.42;1.15;;;26.10;77.30;;;;;;4228324;27;20094;-67
2022/03/28 04:22:30;;;;;;;3.58;1.25;;;26.10;77.20;;;;;;4236366;27;20046;-71
2022/03/28 04:24:53;;;;;;;1.58;1.17;;;26.20;77.10;;;;;;4230213;27;20080;-67
2022/03/28 04:27:15;;;;;;;3.50;1.80;;;26.20;77.00;;;;;;4231886;27;20034;-70
2022/03/28 04:29:38;;;;;;;3.92;1.73;;;26.20;76.90;;;;;;4241268;27;20946;-67
2022/03/28 04:32:00;;;;;;;2.05;1.20;;;26.20;76.80;;;;;;4235582;27;20038;-69
2022/03/28 04:34:23;;;;;;;2.67;1.38;;;26.30;76.80;;;;;;4232427;27;20135;-68
2022/03/28 04:36:45;;;;;;;3.40;1.55;;;26.30;76.80;;;;;;4240331;27;20590;-69
2022/03/28 04:39:08;;;;;;;3.13;1.38;;;26.30;76.50;;;;;;4232979;27;20029;-69
2022/03/28 04:41:43;;;;;;;2.97;1.65;;;26.30;76.60;;;;;;4244172;27;20060;-67
2022/03/28 04:44:06;;;;;;;2.95;1.50;;;26.30;76.50;;;;;;4245678;27;21312;-69
2022/03/28 04:46:29;;;;;;;2.40;1.38;;;26.30;76.40;;;;;;4243158;27;20162;-67
2022/03/28 04:48:51;;;;;;;2.10;1.27;;;26.30;76.30;;;;;;4249914;27;20057;-67
2022/03/28 04:51:14;;;;;;;2.28;1.60;;;26.40;76.30;;;;;;4216655;27;20050;-68
2022/03/28 04:53:36;;;;;;;2.38;1.50;;;26.40;76.30;;;;;;4227587;27;20968;-68
2022/03/28 04:55:59;;;;;;;2.75;1.70;;;26.40;76.20;;;;;;4243689;27;20050;-70
2022/03/28 04:58:52;;;;;;;3.00;1.63;;;26.40;76.30;;;;;;4238522;27;20461;-68
2022/03/28 05:01:15;;;;;;;2.67;1.90;;;26.40;76.20;;;;;;4222793;27;20642;-72
2022/03/28 05:03:37;;;;;;;3.42;1.77;;;26.40;76.10;;;;;;4224982;27;20089;-69
2022/03/28 05:06:00;;;;;;;5.22;2.10;;;26.40;76.20;;;;;;4231332;27;20054;-71
2022/03/28 05:08:22;;;;;;;2.33;1.80;;;26.50;76.10;;;;;;4212342;27;20034;-69
2022/03/28 05:10:44;;;;;;;4.53;1.83;;;26.50;76.10;;;;;;4224225;27;20038;-72
2022/03/28 05:13:07;;;;;;;3.30;1.60;;;26.50;76.10;;;;;;4230242;27;20180;-73
2022/03/28 05:15:31;;;;;;;3.38;2.10;;;26.40;75.90;;;;;;4212710;27;20034;-68
2022/03/28 05:17:54;;;;;;;4.45;2.03;;;26.50;76.10;;;;;;4223927;27;20041;-72
2022/03/28 05:20:16;;;;;;;5.13;2.00;;;26.50;76.00;;;;;;4217753;27;20042;-65
2022/03/28 05:22:38;;;;;;;3.47;2.10;;;26.50;76.00;;;;;;4223862;27;20435;-72
2022/03/28 05:25:02;;;;;;;3.75;1.90;;;26.50;75.90;;;;;;4222658;27;20602;-64
2022/03/28 05:27:25;;;;;;;4.30;1.92;;;26.50;75.90;;;;;;4231256;27;20082;-66
2022/03/28 05:29:48;;;;;;;3.10;2.03;;;26.50;75.90;;;;;;4224481;27;20403;-74
2022/03/28 05:32:11;;;;;;;3.92;2.25;;;26.50;75.90;;;;;;4221526;27;20393;-70
2022/03/28 05:34:34;;;;;;;3.97;2.10;;;26.50;75.90;;;;;;4229131;27;20038;-73
2022/03/28 05:36:58;;;;;;;4.13;2.05;;;26.50;76.00;;;;;;4225073;27;20038;-70
2022/03/28 05:39:20;;;;;;;4.25;2.20;;;26.50;76.00;;;;;;4223026;27;20527;-72
2022/03/28 05:41:43;;;;;;;3.72;2.45;;;26.50;76.00;;;;;;4231679;27;20103;-70
2022/03/28 05:44:06;;;;;;;4.35;2.20;;;26.50;75.80;;;;;;4224284;27;20165;-72
2022/03/28 05:46:29;;;;;;;3.45;2.30;;;26.50;75.80;;;;;;4223687;27;20053;-68
2022/03/28 05:48:52;;;;;;;3.03;1.98;;;26.50;75.90;;;;;;4231585;27;20038;-73
2022/03/28 05:51:14;;;;;;;4.87;2.40;;;26.50;76.50;;;;;;4223861;27;20034;-71
2022/03/28 05:53:37;;;;;;;3.38;2.00;;;26.50;76.00;;;;;;4224665;27;20290;-68
2022/03/28 05:56:03;;;;;;;4.35;2.50;;;26.50;76.00;;;;;;4231796;27;20038;-72
2022/03/28 05:58:26;;;;;;;3.10;2.08;;;26.50;76.10;;;;;;4224290;27;20874;-70
2022/03/28 06:00:49;;;;;;;4.10;2.28;;;26.50;76.00;;;;;;4225819;27;20033;-71
2022/03/28 06:03:12;;;;;;;3.63;2.10;;;26.50;76.00;;;;;;4232922;27;20051;-69
2022/03/28 06:05:39;;;;;;;4.07;2.35;;;26.50;76.00;;;;;;4225436;27;20042;-73
2022/03/28 06:08:01;;;;;;;4.28;2.00;;;26.50;76.00;;;;;;4230462;27;20042;-73
2022/03/28 06:10:24;;;;;;;2.92;2.05;;;26.60;76.10;;;;;;4232121;27;20848;-70
2022/03/28 06:12:47;;;;;;;4.82;2.22;;;26.60;76.10;;;;;;4210600;27;20969;-71
2022/03/28 06:15:09;;;;;;;4.65;2.40;;;26.60;76.10;;;;;;4212648;27;20042;-70
2022/03/28 06:17:32;;;;;;;2.65;2.08;;;26.60;76.10;;;;;;4231399;27;20046;-74
2022/03/28 06:19:55;;;;;;;4.65;2.20;;;26.60;76.10;;;;;;4227904;27;20039;-73
2022/03/28 06:22:17;;;;;;;2.83;2.00;;;26.60;76.00;;;;;;4227696;27;20050;-69
2022/03/28 06:24:40;;;;;;;3.17;2.25;;;26.60;76.10;;;;;;4233175;27;20098;-69
2022/03/28 06:27:03;;;;;;;4.35;2.25;;;26.60;76.00;;;;;;4217670;27;20030;-69
2022/03/28 06:29:25;;;;;;;3.72;2.40;;;26.60;76.00;;;;;;4202084;27;20964;-70
2022/03/28 06:31:48;;;;;;;5.00;2.45;;;26.60;76.00;;;;;;4232073;27;20555;-72
2022/03/28 06:34:10;;;;;;;4.72;2.70;;;26.60;76.00;;;;;;4221473;27;20141;-69
2022/03/28 06:36:33;;;;;;;4.40;2.35;;;26.60;76.00;;;;;;4219904;27;20042;-68
2022/03/28 06:38:56;;;;;;;3.85;2.20;;;26.60;76.00;;;;;;4230884;27;20086;-70
2022/03/28 06:41:19;;;;;;;4.28;2.30;;;26.60;76.00;;;;;;4223185;27;20168;-73
2022/03/28 06:43:41;;;;;;;4.63;2.35;;;26.60;76.00;;;;;;4220319;27;20137;-73
2022/03/28 06:46:03;;;;;;;4.35;2.13;;;26.60;76.00;;;;;;4233065;27;20045;-69
2022/03/28 06:48:26;;;;;;;4.70;2.00;;;26.60;76.10;;;;;;4222811;27;20492;-71
2022/03/28 06:50:48;;;;;;;4.82;2.33;;;26.60;76.00;;;;;;4225042;27;20030;-73
2022/03/28 06:53:12;;;;;;;4.53;2.00;;;26.70;76.00;;;;;;4237214;27;20046;-73
2022/03/28 06:55:35;;;;;;;3.67;2.05;;;26.60;76.00;;;;;;4222093;27;20154;-69
2022/03/28 06:57:58;;;;;;;4.65;2.38;;;26.60;76.10;;;;;;4225940;27;20693;-72
2022/03/28 07:00:20;;;;;;;3.63;2.05;;;26.60;76.00;;;;;;4235856;27;20515;-73
2022/03/28 07:02:43;;;;;;;3.67;1.90;;;26.60;76.00;;;;;;4228228;27;20537;-72
2022/03/28 07:05:10;;;;;;;3.58;2.17;;;26.60;76.10;;;;;;4223624;27;20504;-70
2022/03/28 07:07:47;;;;;;;4.32;2.20;;;26.60;76.00;;;;;;4232732;27;20042;-70
2022/03/28 07:10:11;;;;;;;2.78;2.05;;;26.60;76.00;;;;;;4224045;27;20169;-70
2022/03/28 07:12:33;;;;;;;2.53;1.75;;;26.70;76.00;;;;;;4232125;27;20133;-70
2022/03/28 07:14:56;;;;;;;4.32;2.15;;;26.60;76.00;;;;;;4224979;27;20165;-71
2022/03/28 07:17:19;;;;;;;4.22;2.30;;;26.60;75.90;;;;;;4227505;27;20169;-73
2022/03/28 07:19:42;;;;;;;4.00;2.17;;;26.60;76.00;;;;;;4234099;27;20038;-70
2022/03/28 07:22:14;;;;;;;4.70;2.20;;;26.60;75.90;;;;;;4226247;27;20042;-70
2022/03/28 07:24:36;;;;;;;2.83;1.90;;;26.60;76.00;;;;;;4219441;27;20046;-69
2022/03/28 07:26:58;;;;;;;4.10;2.15;;;26.60;75.90;;;;;;4225173;27;20090;-73
2022/03/28 07:29:21;;;;;;;3.60;1.70;;;26.60;76.00;;;;;;4226407;27;20038;-72
2022/03/28 07:31:44;;;;;;;2.65;1.88;;;26.60;75.90;;;;;;4236551;27;20038;-69
2022/03/28 07:36:48;;;;;;;2.58;1.75;;;26.60;75.90;;;;;;4230055;27;20093;-69
2022/03/28 07:39:11;;;;;;;5.00;2.63;;;26.60;76.00;;;;;;4226390;27;20043;-73
2022/03/28 07:41:33;;;;;;;3.60;2.10;;;26.60;75.90;;;;;;4232251;27;20038;-66
2022/03/28 07:43:56;;;;;;;4.13;2.13;;;26.60;76.00;;;;;;4231974;27;20042;-68
2022/03/28 07:46:18;;;;;;;2.92;1.92;;;26.60;76.10;;;;;;4225226;27;20445;-69
2022/03/28 07:48:41;;;;;;;4.80;2.42;;;26.60;76.10;;;;;;4231247;27;21755;-71
2022/03/28 07:51:04;;;;;;;4.57;2.40;;;26.60;76.10;;;;;;4216449;27;20046;-71
2022/03/28 07:53:26;;;;;;;5.15;2.25;;;26.60;76.30;;;;;;4223198;27;20140;-67
2022/03/28 07:55:49;;;;;;;5.22;3.72;;;26.60;76.20;;;;;;4225189;27;21225;-72
2022/03/28 07:58:12;;;;;;;3.72;3.00;;;26.60;76.20;;;;;;4230911;27;20042;-67
2022/03/28 08:00:37;;;;;;;9.27;3.50;;;26.60;76.40;;;;;;4224216;27;20475;-69
2022/03/28 08:03:00;;;;;;;5.25;3.47;;;26.60;76.40;;;;;;4230211;27;21920;-71
2022/03/28 08:05:23;;;;;;;6.18;3.65;;;26.60;76.30;;;;;;4227956;27;20043;-67
2022/03/28 08:07:46;;;;;;;4.85;3.40;;;26.60;76.40;;;;;;4226140;27;20038;-70
2022/03/28 08:10:09;;;;;;;5.60;3.80;;;26.60;76.20;;;;;;4231105;27;20430;-73
2022/03/28 08:12:32;;;;;;;;;;;26.60;76.30;;;;;;4226264;27;20036;-67
2022/03/28 08:14:56;;;;;;;8.23;3.92;;;26.60;76.40;;;;;;4225109;27;20058;-66
2022/03/28 08:17:19;;;;;;;6.82;3.67;;;26.60;76.40;;;;;;4233201;27;20045;-67
2022/03/28 08:19:42;;;;;;;6.20;3.92;;;26.60;76.40;;;;;;4227855;27;20173;-68
2022/03/28 08:22:04;;;;;;;6.13;3.50;;;26.60;76.50;;;;;;4223088;27;20794;-67
2022/03/28 08:24:27;;;;;;;7.80;3.75;;;26.60;76.40;;;;;;4233723;27;20050;-68
2022/03/28 08:26:49;;;;;;;5.40;3.30;;;26.60;76.40;;;;;;4225219;27;20098;-70
2022/03/28 08:29:12;;;;;;;4.75;3.63;;;26.70;76.50;;;;;;4223745;27;20045;-67
2022/03/28 08:31:35;;;;;;;5.80;3.35;;;26.70;76.60;;;;;;4226924;27;20061;-64
2022/03/28 08:33:58;;;;;;;5.78;3.83;;;26.60;76.50;;;;;;4225678;27;20030;-65
2022/03/28 08:36:22;;;;;;;5.13;3.28;;;26.70;76.30;;;;;;4225025;27;20037;-67
2022/03/28 08:38:44;;;;;;;8.45;3.67;;;26.70;76.30;;;;;;4232373;27;21520;-70
2022/03/28 08:41:12;;;;;;;9.10;3.90;;;26.70;76.30;;;;;;4231901;27;20026;-66
2022/03/28 08:43:35;;;;;;;7.47;3.38;;;26.70;76.30;;;;;;4232073;27;20063;-71
2022/03/28 08:46:04;;;;;;;9.65;2.95;;;26.70;76.30;;;;;;4241043;27;20054;-74
2022/03/28 08:48:27;;;;;;;7.35;3.08;;;26.60;76.20;;;;;;4228603;27;20083;-73
2022/03/28 08:50:51;;;;;;;5.10;3.20;;;26.70;76.30;;;;;;4233023;27;21742;-72
2022/03/28 08:53:14;;;;;;;;;;;26.70;76.30;;;;;;4234996;27;20045;-73
2022/03/28 08:55:39;;;;;;;8.45;2.80;;;26.70;76.30;;;;;;4235780;27;19926;-73
2022/03/28 08:58:01;;;;;;;12.13;3.10;;;26.60;76.30;;;;;;4241843;27;20078;-69
2022/03/28 09:00:26;;;;;;;12.32;3.80;;;26.60;75.90;;;;;;4246645;27;20452;-73
2022/03/28 09:02:50;;;;;;;7.18;3.08;;;26.60;76.30;;;;;;4232275;27;20031;-69
2022/03/28 09:05:18;;;;;;;7.85;2.78;;;26.70;76.40;;;;;;4244536;27;21511;-73
2022/03/28 09:07:40;;;;;;;3.85;2.70;;;26.60;76.30;;;;;;4238825;27;20103;-73
2022/03/28 09:10:23;;;;;;;8.18;3.22;;;26.70;76.40;;;;;;4238128;27;20624;-71
2022/03/28 09:13:11;;;;;;;6.28;2.70;;;26.70;76.30;;;;;;4237737;27;20034;-70
2022/03/28 09:15:45;;;;;;;5.22;3.28;;;26.70;76.40;;;;;;4236957;27;21002;-71
2022/03/28 09:18:08;;;;;;;4.28;2.67;;;26.60;76.30;;;;;;4229655;27;20061;-67
2022/03/28 09:20:30;;;;;;;5.30;2.70;;;26.60;76.30;;;;;;4229356;27;20194;-69
2022/03/28 09:22:53;;;;;;;4.43;2.78;;;26.60;76.40;;;;;;4215735;27;20035;-64
2022/03/28 09:25:19;;;;;;;5.55;2.80;;;26.60;76.40;;;;;;4227771;27;20078;-69
2022/03/28 09:27:44;;;;;;;25.67;2.92;;;26.60;76.40;;;;;;4230249;27;20131;-72
2022/03/28 09:30:15;;;;;;;6.13;2.75;;;26.60;76.60;;;;;;4225321;27;20037;-69
2022/03/28 09:32:42;;;;;;;6.70;2.85;;;26.60;76.40;;;;;;4224677;27;20125;-71
2022/03/28 09:35:19;;;;;;;7.70;2.90;;;26.60;76.40;;;;;;4226837;27;20464;-70
2022/03/28 09:38:07;;;;;;;5.90;2.80;;;26.60;76.40;;;;;;4232207;27;20381;-68
2022/03/28 09:40:34;;;;;;;6.47;2.60;;;26.60;76.50;;;;;;4232307;27;20050;-70
2022/03/28 09:42:57;;;;;;;5.00;2.33;;;26.60;76.50;;;;;;4222351;27;20046;-65
2022/03/28 09:45:27;;;;;;;5.57;2.30;;;26.60;76.40;;;;;;4229628;27;20052;-66
2022/03/28 09:48:22;;;;;;;6.22;2.58;;;26.60;76.40;;;;;;4222337;27;20034;-66
2022/03/28 09:50:47;;;;;;;8.30;2.22;;;26.50;76.40;;;;;;4221612;27;21995;-68
2022/03/28 09:53:27;;;;;;;3.35;2.22;;;26.50;76.40;;;;;;4230507;27;20629;-67
2022/03/28 09:55:58;;;;;;;3.75;2.17;;;26.50;76.50;;;;;;4231852;27;20233;-70
2022/03/28 09:58:45;;;;;;;17.98;2.40;;;26.60;76.60;;;;;;4207519;27;20050;-72
2022/03/28 10:01:32;;;;;;;10.57;2.95;;;26.50;76.60;;;;;;4219369;27;20038;-67
2022/03/28 10:04:05;;;;;;;3.78;2.17;;;26.50;76.70;;;;;;4218035;27;20050;-68
2022/03/28 10:06:29;;;;;;;2.88;2.00;;;26.50;76.70;;;;;;4220078;27;20042;-67
2022/03/28 10:08:50;;;;;;;;;;;26.50;76.80;;;;;;4219821;27;20029;-66
2022/03/28 10:11:14;;;;;;;3.85;1.67;;;26.50;76.70;;;;;;4230161;27;19918;-72
2022/03/28 10:13:37;;;;;;;;;;;26.50;76.70;;;;;;4221800;27;20098;-74
2022/03/28 10:16:02;;;;;;;2.90;2.05;;;26.50;76.70;;;;;;4219540;27;20001;-69
2022/03/28 10:18:31;;;;;;;3.88;2.25;;;26.50;76.70;;;;;;4227914;27;20034;-71
2022/03/28 10:20:56;;;;;;;3.72;2.28;;;26.50;76.70;;;;;;4205406;27;20026;-67
2022/03/28 10:23:20;;;;;;;3.30;2.08;;;26.50;76.60;;;;;;4229939;27;20064;-66
2022/03/28 10:25:43;;;;;;;3.35;2.10;;;26.50;76.60;;;;;;4223185;27;20030;-71
2022/03/28 10:28:07;;;;;;;3.17;2.00;;;26.50;76.50;;;;;;4221389;27;20026;-66
2022/03/28 10:30:30;;;;;;;3.53;1.80;;;26.50;76.60;;;;;;4229654;27;20042;-67
2022/03/28 10:33:19;;;;;;;4.10;1.90;;;26.50;76.50;;;;;;4221745;27;20216;-68
2022/03/28 10:35:56;;;;;;;5.38;2.40;;;26.50;76.40;;;;;;4220872;27;20038;-72
2022/03/28 10:38:19;;;;;;;2.78;1.80;;;26.50;76.50;;;;;;4225007;27;20542;-73
2022/03/28 10:41:01;;;;;;;2.88;1.55;;;26.50;76.50;;;;;;4220006;27;20141;-69
2022/03/28 10:43:25;;;;;;;3.53;1.73;;;26.50;76.40;;;;;;4221747;27;20046;-70
2022/03/28 10:45:56;;;;;;;2.90;1.80;;;26.60;76.50;;;;;;4226483;27;20045;-70
2022/03/28 10:48:41;;;;;;;2.38;1.67;;;26.50;76.40;;;;;;4219560;27;21310;-68
2022/03/28 10:51:05;;;;;;;3.45;2.10;;;26.60;76.50;;;;;;4221410;27;20049;-70
2022/03/28 10:53:33;;;;;;;3.13;2.08;;;26.50;76.40;;;;;;4224025;27;22304;-66
2022/03/28 10:56:01;;;;;;;2.55;1.90;;;26.50;76.40;;;;;;4222297;27;20174;-69
2022/03/28 10:58:28;;;;;;;2.72;1.80;;;26.50;76.40;;;;;;4222917;27;22126;-66
2022/03/28 11:01:18;;;;;;;3.50;1.92;;;26.50;76.40;;;;;;4225792;27;20121;-69
2022/03/28 11:03:45;;;;;;;2.47;1.67;;;26.50;76.40;;;;;;4221298;27;20058;-66
2022/03/28 11:06:08;;;;;;;4.20;1.80;;;26.60;76.40;;;;;;4226512;27;22244;-69
2022/03/28 11:08:36;;;;;;;2.83;1.63;;;26.60;76.40;;;;;;4227260;27;20034;-64
2022/03/28 11:11:16;;;;;;;2.72;1.80;;;26.60;76.40;;;;;;4223477;27;20556;-64
2022/03/28 11:13:38;;;;;;;2.72;1.73;;;26.60;76.40;;;;;;4225228;27;20066;-67
2022/03/28 11:16:02;;;;;;;2.63;1.60;;;26.50;76.30;;;;;;4227672;27;21687;-67
2022/03/28 11:18:31;;;;;;;2.90;2.03;;;26.60;76.40;;;;;;4229096;27;20057;-73
2022/03/28 11:20:55;;;;;;;2.95;1.58;;;26.50;76.30;;;;;;4223877;27;20049;-68
2022/03/28 11:23:21;;;;;;;2.83;1.90;;;26.60;76.50;;;;;;4234231;27;20071;-73
2022/03/28 11:25:46;;;;;;;2.90;1.55;;;26.60;76.40;;;;;;4209328;27;20050;-69
2022/03/28 11:28:23;;;;;;;2.55;1.85;;;26.60;76.30;;;;;;4232031;27;20089;-71
2022/03/28 11:30:48;;;;;;;2.08;1.83;;;26.60;76.30;;;;;;4213314;27;20039;-68
2022/03/28 11:33:12;;;;;;;1.80;1.60;;;26.60;76.70;;;;;;4237929;27;20520;-72
2022/03/28 11:35:35;;;;;;;2.38;1.50;;;26.60;76.30;;;;;;4226356;27;20038;-70
2022/03/28 11:37:59;;;;;;;1.90;1.52;;;26.60;76.30;;;;;;4226040;27;20744;-71
2022/03/28 11:40:22;;;;;;;2.75;1.52;;;26.60;76.30;;;;;;4235140;27;20126;-70
2022/03/28 11:42:49;;;;;;;2.45;1.52;;;26.60;76.40;;;;;;4225805;27;20030;-71
2022/03/28 11:45:13;;;;;;;1.85;1.50;;;26.60;76.30;;;;;;4231340;27;22487;-71
2022/03/28 11:47:38;;;;;;;1.85;1.60;;;26.60;76.30;;;;;;4230397;27;20061;-67
2022/03/28 11:50:03;;;;;;;2.22;1.50;;;26.60;76.80;;;;;;4229056;27;20034;-70
2022/03/28 11:52:31;;;;;;;1.95;1.50;;;26.60;76.30;;;;;;4236425;27;20045;-71
2022/03/28 11:54:55;;;;;;;2.22;1.50;;;26.60;76.30;;;;;;4212193;27;20042;-68
2022/03/28 12:00:28;;;;;;;1.67;1.35;;;26.60;76.20;;;;;;4235869;27;20073;-72
2022/03/28 12:02:59;;;;;;;2.10;1.70;;;26.60;76.20;;;;;;4234314;27;20563;-70
2022/03/28 12:05:28;;;;;;;2.95;1.88;;;26.60;76.30;;;;;;4227931;27;20073;-66
2022/03/28 12:07:50;;;;;;;1.40;1.20;;;26.60;76.30;;;;;;4234203;27;20046;-73
2022/03/28 12:10:13;;;;;;;2.25;1.52;;;26.60;76.30;;;;;;4225616;27;20037;-70
2022/03/28 12:12:36;;;;;;;2.43;1.53;;;26.60;76.30;;;;;;4226255;27;20045;-64
2022/03/28 12:15:00;;;;;;;2.63;1.48;;;26.60;76.30;;;;;;4237626;27;20038;-73
2022/03/28 12:17:30;;;;;;;2.13;1.55;;;26.60;76.40;;;;;;4212439;27;20039;-73
2022/03/28 12:20:05;;;;;;;2.45;1.33;;;26.60;76.40;;;;;;4231440;27;20092;-69
2022/03/28 12:22:28;;;;;;;5.10;1.75;;;26.60;76.40;;;;;;4227931;27;20038;-67
2022/03/28 12:24:51;;;;;;;19.13;1.80;;;26.60;76.20;;;;;;4233980;27;20236;-66
2022/03/28 12:27:19;;;;;;;4.82;1.70;;;26.60;76.30;;;;;;4229311;27;20034;-72
2022/03/28 12:29:42;;;;;;;7.70;2.00;;;26.50;76.20;;;;;;4228196;27;22180;-69
2022/03/28 12:32:05;;;;;;;9.93;2.20;;;26.60;76.20;;;;;;4235939;27;20527;-72
2022/03/28 12:34:28;;;;;;;5.70;2.10;;;26.60;76.30;;;;;;4230151;27;20409;-68
2022/03/28 12:36:50;;;;;;;3.35;1.67;;;26.50;76.30;;;;;;4233570;27;20034;-70
2022/03/28 12:39:14;;;;;;;7.55;1.63;;;26.50;76.30;;;;;;4237246;27;20416;-66
2022/03/28 12:41:43;;;;;;;;;;;26.50;76.30;;;;;;4230449;27;20043;-68
2022/03/28 12:44:06;;;;;;;3.80;1.70;;;26.50;76.30;;;;;;4234773;27;19933;-70